Warning: Javascript must be enabled to use all the features on this page!


Page Loading - Please Wait...

Click to hideNews Bulletins

Peak Streamflow for the Nation

USGS 04280450 METTAWEE RIVER NEAR MIDDLE GRANVILLE NY

Washington County, New York
Hydrologic Unit Code 04150401
Latitude  43°27'50.5", Longitude  73°17'04.2" NAD83
Drainage area 167  square miles
Gage datum 315.35 feet above NAVD88
Output formats
Table
Graph
Tab-separated file
peakfq (watstore) format
Reselect output format
Water
Year
Date Gage
Height
(feet)
Stream-
flow
(cfs)
1970 1969-12-31 7.16  
1977 1977-03-14   14,5002,7
1984 1984-05-31   5,4002,7
1990 1990-05-14 7.16 2,830
1991 1990-11-11 7.59 3,400
1992 1991-11-23 6.432 1,980
1993 1993-03-29 8.56 4,310
1994 1994-04-07 7.86 3,410
1995 1995-03-09 6.022 1,500
1996 1996-01-20 10.69 7,600
1997 1996-12-02 9.00 4,920
1998 1998-01-08 10.68 7,590
1999 1999-01-24 11.25 8,600
2000 2000-02-28 8.71 4,520
2001 2000-12-17 13.47 13,100
2002 2002-04-15 7.09 2,530
2003 2003-03-21 6.66 2,090
2004 2003-12-25 8.92 4,810
2005 2005-03-28 7.20 2,650
2006 2006-01-18 10.46 7,210
2007 2007-03-15 7.822 3,360
2008 2008-03-09 9.16 5,150
2009 2008-12-12 6.90 2,340
2010 2010-01-26 8.36 4,040
2011 2011-08-28 15.04 16,8009
2012 2012-01-27 6.26 1,720
2013 2013-03-13 7.04 2,480
2014 2014-01-11 7.46 2,940
2015 2014-12-25 8.45 4,160
2016 2016-02-25 7.63 3,250
2017 2017-07-02 9.95 6,470
2018 2018-01-13 8.022 3,720
2019 2019-04-15 9.222 5,360
2020 2019-11-01 7.57 3,180
2021 2020-12-25 7.51 3,110
?
  Peak Gage-Height Qualification Codes.
?
  Peak Streamflow Qualification Codes.